Time;durP1;ratioP1;P1;durP2;ratioP2;P2;SDS_P1;SDS_P2;PMS_P1;PMS_P2;Temp;Humidity;BMP_temperature;BMP_pressure;BME280_temperature;BME280_humidity;BME280_pressure;Samples;Min_cycle;Max_cycle;Signal;HPM_P1;HPM_P2
2022/10/07 00:02:09;;;;;;;7.22;3.15;;;14.60;80.50;;;;;;5017137;28;20034;-77
2022/10/07 00:04:35;;;;;;;7.28;3.38;;;14.70;80.40;;;;;;5017013;28;20452;-77
2022/10/07 00:07:01;;;;;;;8.25;3.47;;;14.60;80.50;;;;;;5016074;28;20029;-77
2022/10/07 00:09:27;;;;;;;7.13;3.70;;;14.60;81.50;;;;;;5015674;28;20018;-78
2022/10/07 00:11:53;;;;;;;7.70;3.72;;;14.60;80.70;;;;;;5015305;28;20036;-79
2022/10/07 00:14:19;;;;;;;12.70;3.70;;;14.60;80.50;;;;;;5015963;28;20032;-78
2022/10/07 00:16:44;;;;;;;7.90;3.10;;;14.60;80.40;;;;;;5016399;28;20050;-78
2022/10/07 00:19:12;;;;;;;10.10;3.47;;;14.60;80.40;;;;;;5016746;28;20026;-79
2022/10/07 00:21:38;;;;;;;7.25;2.85;;;14.60;81.10;;;;;;5016325;28;20087;-78
2022/10/07 00:24:06;;;;;;;9.57;3.70;;;14.70;81.00;;;;;;5015942;28;20022;-79
2022/10/07 00:26:34;;;;;;;7.80;3.47;;;14.70;80.10;;;;;;5015679;28;20025;-80
2022/10/07 00:29:00;;;;;;;6.60;3.47;;;14.70;80.10;;;;;;5015938;28;20028;-79
2022/10/07 00:31:31;;;;;;;10.32;3.85;;;14.70;80.00;;;;;;5016103;28;20389;-78
2022/10/07 00:33:57;;;;;;;8.52;3.53;;;14.60;80.00;;;;;;5016516;28;20532;-78
2022/10/07 00:36:28;;;;;;;7.00;3.10;;;14.70;80.30;;;;;;5016461;28;20068;-78
2022/10/07 00:38:59;;;;;;;5.93;2.92;;;14.60;80.30;;;;;;5015073;28;20026;-78
2022/10/07 00:42:00;;;;;;;9.18;2.70;;;14.60;80.30;;;;;;5016355;28;20037;-78
2022/10/07 00:44:35;;;;;;;5.30;2.53;;;14.60;79.00;;;;;;4995160;28;20053;-78
2022/10/07 00:47:08;;;;;;;7.53;2.65;;;14.50;79.10;;;;;;5012536;28;20042;-78
2022/10/07 00:50:00;;;;;;;6.55;2.50;;;14.50;79.50;;;;;;5015510;28;20029;-78
2022/10/07 00:52:30;;;;;;;5.50;2.22;;;14.50;79.60;;;;;;5005059;28;20084;-78
2022/10/07 00:54:59;;;;;;;8.05;2.50;;;14.50;79.40;;;;;;5015515;28;20480;-79
2022/10/07 00:57:28;;;;;;;8.68;1.98;;;14.50;79.10;;;;;;5015408;28;20038;-79
2022/10/07 00:59:55;;;;;;;8.48;1.77;;;14.40;79.00;;;;;;5015791;28;20036;-79
2022/10/07 01:02:24;;;;;;;4.57;1.30;;;14.30;78.50;;;;;;5015671;28;20022;-78
2022/10/07 01:04:51;;;;;;;4.35;1.50;;;14.30;78.40;;;;;;5015524;28;20049;-79
2022/10/07 01:07:20;;;;;;;4.22;1.25;;;14.30;78.50;;;;;;5015587;28;20029;-78
2022/10/07 01:09:49;;;;;;;2.45;1.40;;;14.20;78.40;;;;;;5015936;28;20064;-79
2022/10/07 01:12:17;;;;;;;3.20;1.42;;;14.30;78.40;;;;;;5015897;28;20477;-78
2022/10/07 01:14:59;;;;;;;4.47;1.58;;;14.20;78.20;;;;;;5015729;28;20064;-79
2022/10/07 01:17:51;;;;;;;3.65;1.52;;;14.20;78.20;;;;;;5015581;28;20128;-78
2022/10/07 01:20:28;;;;;;;6.38;1.70;;;14.20;78.20;;;;;;5015196;28;20032;-79
2022/10/07 01:23:17;;;;;;;7.90;1.98;;;14.20;78.30;;;;;;5015467;28;20025;-79
2022/10/07 01:26:15;;;;;;;5.70;1.63;;;14.20;78.40;;;;;;5015497;28;20033;-78
2022/10/07 01:29:11;;;;;;;4.28;1.40;;;14.10;78.60;;;;;;5022181;28;20034;-78
2022/10/07 01:31:50;;;;;;;5.82;1.58;;;14.20;78.40;;;;;;5015098;28;20021;-78
2022/10/07 01:34:17;;;;;;;3.85;1.52;;;14.20;78.40;;;;;;5010913;28;20032;-78
2022/10/07 01:36:49;;;;;;;7.30;1.92;;;14.20;78.30;;;;;;5015232;28;20033;-78
2022/10/07 01:39:16;;;;;;;3.95;1.88;;;14.20;78.50;;;;;;5015226;28;20032;-77
2022/10/07 01:41:42;;;;;;;4.60;1.60;;;14.20;78.60;;;;;;5015373;28;20508;-78
2022/10/07 01:44:09;;;;;;;4.65;1.90;;;14.10;78.60;;;;;;5015085;28;20025;-78
2022/10/07 01:46:36;;;;;;;4.50;1.73;;;14.10;78.70;;;;;;5015131;28;20385;-78
2022/10/07 01:49:04;;;;;;;5.03;1.52;;;14.20;78.90;;;;;;5015085;28;20022;-78
2022/10/07 01:51:33;;;;;;;5.70;1.92;;;14.20;78.80;;;;;;5018264;28;20053;-77
2022/10/07 01:54:27;;;;;;;6.30;1.60;;;14.10;78.80;;;;;;5019379;28;20029;-77
2022/10/07 01:57:06;;;;;;;3.47;1.88;;;14.20;78.80;;;;;;5021090;28;20033;-77
2022/10/07 01:59:55;;;;;;;3.90;1.45;;;14.20;78.90;;;;;;5029607;28;20026;-77
2022/10/07 02:02:34;;;;;;;8.32;2.65;;;14.20;79.00;;;;;;5019213;28;20026;-78
2022/10/07 02:05:14;;;;;;;4.25;1.88;;;14.10;79.30;;;;;;5019198;28;20390;-77
2022/10/07 02:07:46;;;;;;;7.15;1.92;;;14.10;79.20;;;;;;5018812;28;20021;-77
2022/10/07 02:10:25;;;;;;;6.82;2.03;;;14.10;79.30;;;;;;5018866;28;20125;-78
2022/10/07 02:13:07;;;;;;;9.55;2.30;;;14.10;79.20;;;;;;5018983;28;20116;-77
2022/10/07 02:16:04;;;;;;;6.65;2.00;;;14.10;80.10;;;;;;5018493;28;20466;-77
2022/10/07 02:18:33;;;;;;;6.13;2.22;;;14.10;79.50;;;;;;5018511;28;20124;-78
2022/10/07 02:21:02;;;;;;;4.40;1.55;;;14.10;79.50;;;;;;5018760;28;20034;-78
2022/10/07 02:23:28;;;;;;;3.33;2.30;;;14.20;79.60;;;;;;5018842;28;20441;-79
2022/10/07 02:25:55;;;;;;;6.90;2.58;;;14.20;79.70;;;;;;5018459;28;20056;-78
2022/10/07 02:28:23;;;;;;;4.50;2.45;;;14.20;79.70;;;;;;5018597;28;20044;-78
2022/10/07 02:30:52;;;;;;;4.45;2.50;;;14.20;79.60;;;;;;5018665;28;20061;-78
2022/10/07 02:33:21;;;;;;;5.35;2.63;;;14.20;79.60;;;;;;5018913;28;20481;-78
2022/10/07 02:35:55;;;;;;;6.18;2.47;;;14.30;79.70;;;;;;5017648;28;20065;-77
2022/10/07 02:38:21;;;;;;;6.95;2.63;;;14.30;79.80;;;;;;5018376;28;20129;-78
2022/10/07 02:40:53;;;;;;;9.45;3.22;;;14.30;79.70;;;;;;5017792;28;20057;-78
2022/10/07 02:43:40;;;;;;;10.20;3.33;;;14.30;79.60;;;;;;5017391;28;20032;-77
2022/10/07 02:46:17;;;;;;;11.32;3.03;;;14.30;79.40;;;;;;5018492;28;20470;-77
2022/10/07 02:48:49;;;;;;;9.95;3.38;;;14.20;79.30;;;;;;5017776;28;20433;-77
2022/10/07 02:51:19;;;;;;;6.97;2.78;;;14.20;79.40;;;;;;5018074;28;20025;-77
2022/10/07 02:53:48;;;;;;;7.53;3.15;;;14.10;79.70;;;;;;5018057;28;20025;-78
2022/10/07 02:56:16;;;;;;;7.90;3.15;;;14.00;79.60;;;;;;5018057;28;20037;-77
2022/10/07 02:58:44;;;;;;;6.78;2.92;;;13.90;79.90;;;;;;5017785;28;20030;-79
2022/10/07 03:01:15;;;;;;;6.20;3.30;;;13.90;80.10;;;;;;5018390;28;20116;-78
2022/10/07 03:03:41;;;;;;;9.45;2.97;;;13.80;80.00;;;;;;5016461;28;20032;-77
2022/10/07 03:06:07;;;;;;;10.68;3.35;;;13.80;80.00;;;;;;5017597;28;20092;-78
2022/10/07 03:08:33;;;;;;;10.05;3.70;;;13.70;80.20;;;;;;5018009;28;20021;-77
2022/10/07 03:10:59;;;;;;;10.88;2.70;;;13.60;80.20;;;;;;5035123;28;20029;-77
2022/10/07 03:13:25;;;;;;;9.93;3.17;;;13.50;80.80;;;;;;5017307;28;20394;-77
2022/10/07 03:15:51;;;;;;;9.90;2.83;;;13.40;80.80;;;;;;5017284;28;20485;-77
2022/10/07 03:18:26;;;;;;;7.00;3.05;;;13.40;81.10;;;;;;5017903;28;20045;-78
2022/10/07 03:20:58;;;;;;;7.95;2.60;;;13.50;81.10;;;;;;5017776;28;20487;-78
2022/10/07 03:23:25;;;;;;;5.93;2.70;;;13.50;81.10;;;;;;5017629;28;20033;-77
2022/10/07 03:25:52;;;;;;;11.82;3.42;;;13.50;81.00;;;;;;5017453;28;20029;-77
2022/10/07 03:28:24;;;;;;;6.80;3.28;;;13.30;81.60;;;;;;5017575;28;20026;-78
2022/10/07 03:30:50;;;;;;;9.73;3.70;;;13.20;83.30;;;;;;5017607;28;20025;-77
2022/10/07 03:33:17;;;;;;;9.15;3.28;;;13.20;82.70;;;;;;5017061;28;20053;-79
2022/10/07 03:35:43;;;;;;;8.95;3.92;;;13.20;82.60;;;;;;5017231;28;20036;-78
2022/10/07 03:38:09;;;;;;;9.57;3.67;;;13.10;83.30;;;;;;5017356;28;20029;-78
2022/10/07 03:40:36;;;;;;;11.15;4.72;;;13.10;83.20;;;;;;5017347;28;20025;-78
2022/10/07 03:43:03;;;;;;;7.07;3.80;;;13.10;83.60;;;;;;5016914;28;20036;-78
2022/10/07 03:45:29;;;;;;;9.45;3.65;;;13.10;84.00;;;;;;5016456;28;20029;-77
2022/10/07 03:47:56;;;;;;;9.32;3.63;;;13.10;83.90;;;;;;5017338;28;20057;-78
2022/10/07 03:50:23;;;;;;;8.60;3.65;;;13.20;83.80;;;;;;5017011;28;20025;-79
2022/10/07 03:52:48;;;;;;;6.60;3.58;;;13.30;83.70;;;;;;5016927;28;20120;-77
2022/10/07 03:55:15;;;;;;;12.52;3.55;;;13.30;83.40;;;;;;5017103;28;20449;-78
2022/10/07 03:57:50;;;;;;;10.93;4.05;;;13.40;83.00;;;;;;5017014;28;20469;-78
2022/10/07 04:00:22;;;;;;;9.95;3.92;;;13.40;82.70;;;;;;5017028;28;20036;-78
2022/10/07 04:02:48;;;;;;;7.25;3.47;;;13.40;82.70;;;;;;5016668;28;20068;-77
2022/10/07 04:05:20;;;;;;;7.45;3.67;;;13.50;82.70;;;;;;5016081;28;20017;-78
2022/10/07 04:07:47;;;;;;;10.38;3.88;;;13.50;82.30;;;;;;5015957;28;20029;-78
2022/10/07 04:10:15;;;;;;;11.63;3.53;;;13.50;82.30;;;;;;5016222;28;20056;-79
2022/10/07 04:12:42;;;;;;;12.52;5.38;;;13.40;82.00;;;;;;5016006;28;20032;-79
2022/10/07 04:15:12;;;;;;;17.90;5.70;;;13.40;81.80;;;;;;5016223;28;20018;-78
2022/10/07 04:17:41;;;;;;;11.20;5.53;;;13.30;82.60;;;;;;5016407;28;20049;-79
2022/10/07 04:20:07;;;;;;;16.55;5.10;;;13.20;83.00;;;;;;5016464;28;20028;-79
2022/10/07 04:22:32;;;;;;;8.80;4.70;;;13.10;83.10;;;;;;5015268;28;20385;-79
2022/10/07 04:27:42;;;;;;;11.02;4.05;;;13.20;83.30;;;;;;5040294;28;20607;-78
2022/10/07 04:30:08;;;;;;;10.93;3.67;;;13.30;84.30;;;;;;5019331;28;20124;-78
2022/10/07 04:32:35;;;;;;;9.93;4.43;;;13.30;83.50;;;;;;5019896;28;20130;-77
2022/10/07 04:35:02;;;;;;;15.25;5.45;;;13.30;83.40;;;;;;5016278;28;20026;-78
2022/10/07 04:37:28;;;;;;;12.73;4.63;;;13.30;83.00;;;;;;5014793;28;20072;-78
2022/10/07 04:39:54;;;;;;;14.25;4.30;;;13.30;82.90;;;;;;5016345;28;20032;-77
2022/10/07 04:45:05;;;;;;;9.43;4.60;;;13.40;82.70;;;;;;5034020;28;20036;-77
2022/10/07 04:47:33;;;;;;;7.13;3.80;;;13.40;82.50;;;;;;5016263;28;20021;-78
2022/10/07 04:49:58;;;;;;;13.95;4.70;;;13.50;82.50;;;;;;5016124;28;20532;-77
2022/10/07 04:52:25;;;;;;;11.10;4.38;;;13.50;82.30;;;;;;5015279;28;20029;-79
2022/10/07 04:54:51;;;;;;;13.10;4.05;;;13.50;82.30;;;;;;5015863;28;20029;-78
2022/10/07 04:57:16;;;;;;;9.15;4.57;;;13.60;82.10;;;;;;5015486;28;20038;-78
2022/10/07 04:59:42;;;;;;;8.70;4.13;;;13.60;82.00;;;;;;5015862;28;20477;-77
2022/10/07 05:02:07;;;;;;;10.90;4.55;;;13.60;82.00;;;;;;5014475;28;20597;-78
2022/10/07 05:04:35;;;;;;;8.38;4.63;;;13.50;81.80;;;;;;5013534;28;20026;-79
2022/10/07 05:07:00;;;;;;;14.00;5.07;;;13.60;81.80;;;;;;5013980;28;20021;-78
2022/10/07 05:09:27;;;;;;;13.82;4.72;;;13.50;81.80;;;;;;5014267;28;20091;-78
2022/10/07 05:11:56;;;;;;;13.18;4.95;;;13.50;81.80;;;;;;5015210;28;20025;-78
2022/10/07 05:14:22;;;;;;;19.85;6.18;;;13.50;82.00;;;;;;5015537;28;20025;-77
2022/10/07 05:16:49;;;;;;;17.77;4.93;;;13.50;82.00;;;;;;5015082;28;20053;-78
2022/10/07 05:19:15;;;;;;;11.07;4.40;;;13.40;82.10;;;;;;5014633;28;20067;-78
2022/10/07 05:21:41;;;;;;;8.32;3.88;;;13.30;82.30;;;;;;5013938;28;20116;-78
2022/10/07 05:24:07;;;;;;;11.18;4.50;;;13.20;82.30;;;;;;5014903;28;20454;-78
2022/10/07 05:26:33;;;;;;;6.65;4.00;;;13.20;82.50;;;;;;5014378;28;20079;-78
2022/10/07 05:28:59;;;;;;;9.27;4.65;;;13.20;83.50;;;;;;5014347;28;20501;-79
2022/10/07 05:31:26;;;;;;;7.97;4.57;;;13.10;82.90;;;;;;5015120;28;20036;-78
2022/10/07 05:33:52;;;;;;;8.23;4.53;;;13.10;82.90;;;;;;5014756;28;20021;-77
2022/10/07 05:36:18;;;;;;;10.35;4.50;;;13.20;83.70;;;;;;5014088;28;20501;-78
2022/10/07 05:38:44;;;;;;;6.75;4.28;;;13.20;83.00;;;;;;5014575;28;20018;-77
2022/10/07 05:41:11;;;;;;;13.50;5.15;;;13.20;82.80;;;;;;5014889;28;20029;-77
2022/10/07 05:43:41;;;;;;;9.45;4.45;;;13.20;82.80;;;;;;5014262;28;20366;-77
2022/10/07 05:46:11;;;;;;;11.70;5.28;;;13.30;82.80;;;;;;5014544;28;20389;-77
2022/10/07 05:48:37;;;;;;;7.50;5.03;;;13.20;82.30;;;;;;5014656;28;20026;-77
2022/10/07 05:51:03;;;;;;;12.63;5.38;;;13.20;82.30;;;;;;5014633;28;20032;-78
2022/10/07 05:53:29;;;;;;;10.55;5.45;;;13.20;82.20;;;;;;5014728;28;20579;-78
2022/10/07 05:55:55;;;;;;;14.85;5.10;;;13.10;82.10;;;;;;5013918;28;20460;-77
2022/10/07 05:58:21;;;;;;;10.50;5.55;;;13.10;82.40;;;;;;5013768;28;20034;-78
2022/10/07 06:00:58;;;;;;;8.02;3.90;;;13.10;82.50;;;;;;5032570;28;20109;-78
2022/10/07 06:03:25;;;;;;;12.95;5.47;;;13.10;82.40;;;;;;5032244;28;20474;-78
2022/10/07 06:05:53;;;;;;;8.75;4.68;;;13.00;82.70;;;;;;5014588;28;20022;-78
2022/10/07 06:08:20;;;;;;;12.95;5.40;;;13.10;82.70;;;;;;5014753;28;20401;-78
2022/10/07 06:13:31;;;;;;;9.63;4.72;;;13.00;82.70;;;;;;5032153;28;20127;-78
2022/10/07 06:16:07;;;;;;;11.52;4.70;;;13.00;82.50;;;;;;5014433;28;20033;-79
2022/10/07 06:18:36;;;;;;;13.05;5.38;;;13.10;82.60;;;;;;5014464;28;20069;-78
2022/10/07 06:21:02;;;;;;;9.60;5.15;;;13.10;82.50;;;;;;5014709;28;20021;-78
2022/10/07 06:23:29;;;;;;;13.45;5.57;;;13.20;82.40;;;;;;5031990;28;20492;-77
2022/10/07 06:25:57;;;;;;;15.38;5.82;;;13.20;82.10;;;;;;5014438;28;20024;-78
2022/10/07 06:28:23;;;;;;;12.25;5.43;;;13.30;82.10;;;;;;5014299;28;20685;-79
2022/10/07 06:30:49;;;;;;;14.30;6.95;;;13.30;81.80;;;;;;5014154;28;20034;-78
2022/10/07 06:33:18;;;;;;;14.73;7.40;;;13.30;81.80;;;;;;5014044;28;20069;-78
2022/10/07 06:35:44;;;;;;;18.17;9.35;;;13.30;82.20;;;;;;5014468;28;20478;-79
2022/10/07 06:38:10;;;;;;;12.32;7.72;;;13.40;82.80;;;;;;5016122;28;20044;-78
2022/10/07 06:40:37;;;;;;;13.98;7.75;;;13.50;82.60;;;;;;5017573;28;20029;-78
2022/10/07 06:43:04;;;;;;;13.00;7.63;;;13.60;82.50;;;;;;5017815;28;20033;-78
2022/10/07 06:45:31;;;;;;;13.55;8.02;;;13.70;82.10;;;;;;5017983;28;20116;-79
2022/10/07 06:47:57;;;;;;;14.73;8.48;;;13.80;81.80;;;;;;5018200;28;20025;-79
2022/10/07 06:50:27;;;;;;;11.93;7.00;;;13.80;81.70;;;;;;5017737;28;20044;-79
2022/10/07 06:52:52;;;;;;;9.73;6.97;;;13.90;81.50;;;;;;5017484;28;20083;-78
2022/10/07 06:55:19;;;;;;;9.38;7.07;;;14.00;81.20;;;;;;5017862;28;20033;-78
2022/10/07 06:57:45;;;;;;;14.55;8.65;;;14.00;81.80;;;;;;5017979;28;20036;-78
2022/10/07 07:00:12;;;;;;;17.88;10.95;;;14.10;80.80;;;;;;5035526;28;20017;-78
2022/10/07 07:02:39;;;;;;;14.50;9.63;;;14.20;80.50;;;;;;5017679;28;20059;-80
2022/10/07 07:05:07;;;;;;;15.15;10.10;;;14.10;80.50;;;;;;5016810;28;20057;-80
2022/10/07 07:07:32;;;;;;;13.20;9.07;;;14.20;80.40;;;;;;5017184;28;20393;-79
2022/10/07 07:09:58;;;;;;;14.85;10.18;;;14.30;80.40;;;;;;5016972;28;20029;-80
2022/10/07 07:12:24;;;;;;;12.95;8.75;;;14.40;80.20;;;;;;5016985;28;20108;-79
2022/10/07 07:14:50;;;;;;;16.20;10.30;;;14.40;80.70;;;;;;5017110;28;20029;-78
2022/10/07 07:17:16;;;;;;;15.07;9.68;;;14.50;79.80;;;;;;5016911;28;20107;-77
2022/10/07 07:19:42;;;;;;;13.32;9.07;;;14.60;79.40;;;;;;5017242;28;20120;-77
2022/10/07 07:22:08;;;;;;;12.20;8.57;;;14.70;79.20;;;;;;5017220;28;20087;-76
2022/10/07 07:24:33;;;;;;;15.30;9.82;;;14.80;79.10;;;;;;5017440;28;20072;-77
2022/10/07 07:26:59;;;;;;;17.92;11.15;;;14.80;78.90;;;;;;5017162;28;20026;-77
2022/10/07 07:29:25;;;;;;;21.35;11.90;;;14.90;78.70;;;;;;5017384;28;20021;-78
2022/10/07 07:31:51;;;;;;;23.77;13.35;;;14.90;78.40;;;;;;5016750;28;20117;-77
2022/10/07 07:34:18;;;;;;;18.65;12.02;;;14.80;78.40;;;;;;5016746;28;20485;-76
2022/10/07 07:36:50;;;;;;;16.02;11.98;;;14.80;78.60;;;;;;5016940;28;20060;-76
2022/10/07 07:39:17;;;;;;;14.88;10.77;;;14.80;78.50;;;;;;5015972;28;20030;-78
2022/10/07 07:41:46;;;;;;;18.08;11.43;;;14.90;78.30;;;;;;5016630;28;20032;-77
2022/10/07 07:44:14;;;;;;;15.98;10.20;;;15.00;78.50;;;;;;5016087;28;20087;-77
2022/10/07 07:46:42;;;;;;;14.77;9.50;;;15.10;78.40;;;;;;5016595;28;20034;-78
2022/10/07 07:49:10;;;;;;;11.57;8.52;;;15.20;78.00;;;;;;5016396;28;20029;-76
2022/10/07 07:51:36;;;;;;;13.40;10.18;;;15.40;77.80;;;;;;5016703;28;20053;-75
2022/10/07 07:54:02;;;;;;;15.00;9.02;;;15.60;76.60;;;;;;5016662;28;20025;-75
2022/10/07 07:56:30;;;;;;;16.13;9.52;;;15.80;76.20;;;;;;5016834;28;20029;-75
2022/10/07 07:58:56;;;;;;;13.18;10.40;;;15.90;75.60;;;;;;5016984;28;20083;-77
2022/10/07 08:01:21;;;;;;;11.13;8.88;;;15.80;74.50;;;;;;5016758;28;20029;-77
2022/10/07 08:03:47;;;;;;;14.05;9.75;;;15.90;74.80;;;;;;5016669;28;20044;-77
2022/10/07 08:06:15;;;;;;;15.88;11.30;;;16.00;74.20;;;;;;5016783;28;20029;-78
2022/10/07 08:08:42;;;;;;;19.05;12.45;;;16.10;73.90;;;;;;5016357;28;20076;-83
2022/10/07 08:11:11;;;;;;;15.30;10.07;;;16.10;74.70;;;;;;5034133;28;20025;-82
2022/10/07 08:13:40;;;;;;;16.55;8.48;;;16.40;75.20;;;;;;5016174;28;20060;-82
2022/10/07 08:16:06;;;;;;;15.88;11.20;;;16.60;74.30;;;;;;5016388;28;20033;-87
2022/10/07 08:18:33;;;;;;;17.02;9.73;;;16.80;72.30;;;;;;4999467;28;20089;-84
2022/10/07 08:21:02;;;;;;;10.95;7.65;;;16.90;71.30;;;;;;5016481;28;20030;-86
2022/10/07 08:23:29;;;;;;;13.48;8.10;;;17.00;71.90;;;;;;5000063;28;20079;-85
2022/10/07 08:26:03;;;;;;;10.25;7.95;;;17.10;70.90;;;;;;5030944;28;20037;-85
2022/10/07 08:28:33;;;;;;;9.20;7.10;;;17.20;70.40;;;;;;5033837;28;20057;-85
2022/10/07 08:31:05;;;;;;;9.23;7.60;;;17.30;71.10;;;;;;5033875;28;20021;-85
2022/10/07 08:33:35;;;;;;;9.18;7.40;;;17.30;69.20;;;;;;4999318;28;20494;-84
2022/10/07 08:36:03;;;;;;;11.68;7.20;;;17.40;69.40;;;;;;5016039;28;20163;-84
2022/10/07 08:38:42;;;;;;;10.55;7.60;;;17.40;69.70;;;;;;5015757;28;20038;-85
2022/10/07 08:41:32;;;;;;;13.50;7.68;;;17.40;68.90;;;;;;5032931;28;20022;-84
2022/10/07 08:44:20;;;;;;;11.77;7.78;;;17.20;69.30;;;;;;5032581;28;20026;-84
2022/10/07 08:47:07;;;;;;;11.73;8.38;;;17.00;70.20;;;;;;5005333;28;20037;-84
2022/10/07 08:49:57;;;;;;;8.02;6.82;;;16.70;70.60;;;;;;5015519;28;20044;-84
2022/10/07 08:52:38;;;;;;;16.25;7.07;;;16.50;72.10;;;;;;5015600;28;20533;-85
2022/10/07 08:55:30;;;;;;;10.30;7.30;;;16.40;72.70;;;;;;5015722;28;20041;-84
2022/10/07 08:58:03;;;;;;;12.70;7.93;;;16.50;72.70;;;;;;5015532;28;20040;-84
2022/10/07 09:00:42;;;;;;;9.60;7.03;;;16.70;72.20;;;;;;5014830;28;20396;-85
2022/10/07 09:03:19;;;;;;;9.35;6.80;;;16.80;71.20;;;;;;5015259;28;20473;-84
2022/10/07 09:05:48;;;;;;;9.52;6.45;;;16.90;70.60;;;;;;5016544;28;20469;-85
2022/10/07 09:08:27;;;;;;;10.75;7.35;;;16.90;70.70;;;;;;5031937;28;20490;-76
2022/10/07 09:10:55;;;;;;;11.82;5.95;;;17.00;70.90;;;;;;5014719;28;20109;-76
2022/10/07 09:13:31;;;;;;;9.15;6.68;;;16.90;70.20;;;;;;5030909;28;20394;-76
2022/10/07 09:16:02;;;;;;;9.20;7.07;;;16.80;70.50;;;;;;5015430;28;20052;-76
2022/10/07 09:18:34;;;;;;;8.43;6.85;;;16.80;71.10;;;;;;5015019;28;20049;-76
2022/10/07 09:21:04;;;;;;;12.63;7.05;;;16.70;71.10;;;;;;5031567;28;20485;-76
2022/10/07 09:23:32;;;;;;;9.15;6.35;;;16.70;71.50;;;;;;5031439;28;20397;-76
2022/10/07 09:25:58;;;;;;;6.82;5.82;;;16.70;71.20;;;;;;5031450;28;20022;-77
2022/10/07 09:28:29;;;;;;;10.75;5.85;;;16.90;71.30;;;;;;5031590;28;20067;-76
2022/10/07 09:30:58;;;;;;;9.30;6.10;;;16.90;70.10;;;;;;5014994;28;20029;-75
2022/10/07 09:33:24;;;;;;;8.35;5.57;;;16.90;70.50;;;;;;5031173;28;20032;-76
2022/10/07 09:36:04;;;;;;;6.07;5.13;;;16.90;70.80;;;;;;5031565;28;20424;-75
2022/10/07 09:38:36;;;;;;;10.75;5.13;;;17.00;70.50;;;;;;5014589;28;20029;-77
2022/10/07 09:41:34;;;;;;;7.95;4.55;;;17.10;70.70;;;;;;5014287;28;20025;-77
2022/10/07 09:44:21;;;;;;;8.02;5.45;;;17.10;70.60;;;;;;5032269;28;20497;-77
2022/10/07 09:46:54;;;;;;;8.40;4.93;;;17.10;70.40;;;;;;5048480;22;20053;-77
2022/10/07 09:49:42;;;;;;;9.85;5.90;;;17.00;71.10;;;;;;5034377;28;20095;-77
2022/10/07 09:52:24;;;;;;;6.45;5.30;;;17.00;71.10;;;;;;5051818;28;20025;-77
2022/10/07 09:54:52;;;;;;;9.73;5.85;;;17.00;71.10;;;;;;5017796;28;20060;-76
2022/10/07 09:57:30;;;;;;;6.60;5.07;;;17.10;70.90;;;;;;5017921;28;20099;-77
2022/10/07 10:00:16;;;;;;;6.57;5.25;;;17.00;70.80;;;;;;5034083;28;20116;-79
2022/10/07 10:02:45;;;;;;;;;;;17.00;70.70;;;;;;5034799;28;20032;-77
2022/10/07 10:05:20;;;;;;;8.48;5.60;;;17.00;71.10;;;;;;5033980;28;19908;-79
2022/10/07 10:07:51;;;;;;;9.50;6.00;;;17.00;70.50;;;;;;5033738;28;20063;-78
2022/10/07 10:10:23;;;;;;;8.68;5.90;;;16.90;70.70;;;;;;5033580;28;20500;-79
2022/10/07 10:12:51;;;;;;;10.82;5.78;;;16.80;71.00;;;;;;5036519;28;20021;-79
2022/10/07 10:15:34;;;;;;;11.07;7.00;;;16.80;71.60;;;;;;5021626;28;20127;-79
2022/10/07 10:18:00;;;;;;;10.30;6.32;;;16.90;71.70;;;;;;5037419;28;20040;-79
2022/10/07 10:20:45;;;;;;;8.48;5.18;;;16.80;71.50;;;;;;5037952;28;20458;-79
2022/10/07 10:23:31;;;;;;;8.18;5.97;;;16.70;72.00;;;;;;5037904;28;20033;-79
2022/10/07 10:26:26;;;;;;;7.88;6.22;;;16.60;72.30;;;;;;5037678;28;20052;-78
2022/10/07 10:29:13;;;;;;;8.10;5.95;;;16.50;73.60;;;;;;5037884;28;20092;-79
2022/10/07 10:32:06;;;;;;;8.15;5.82;;;16.40;73.20;;;;;;5037768;28;20453;-79
2022/10/07 10:35:08;;;;;;;8.27;6.32;;;16.30;73.80;;;;;;5055633;28;20032;-79
2022/10/07 10:37:40;;;;;;;7.80;5.97;;;16.30;74.20;;;;;;5037463;28;20098;-79
2022/10/07 10:40:36;;;;;;;6.95;5.25;;;16.30;74.40;;;;;;5037708;28;20021;-78
2022/10/07 10:43:43;;;;;;;8.80;6.32;;;16.30;74.30;;;;;;5037540;28;20051;-78
2022/10/07 10:46:27;;;;;;;;;;;16.40;73.70;;;;;;4977695;28;20503;-78
2022/10/07 10:49:00;;;;;;;9.65;6.38;;;16.40;73.60;;;;;;5034887;28;19917;-78
2022/10/07 10:51:51;;;;;;;8.68;5.50;;;16.30;73.50;;;;;;5037223;28;20029;-78
2022/10/07 10:54:38;;;;;;;12.23;6.90;;;16.40;73.50;;;;;;5036749;28;20036;-78
2022/10/07 10:57:31;;;;;;;8.73;6.35;;;16.50;73.40;;;;;;5036810;28;20032;-78
2022/10/07 11:00:10;;;;;;;9.02;6.68;;;16.50;73.00;;;;;;5035839;28;20112;-79
2022/10/07 11:02:39;;;;;;;8.68;6.20;;;16.30;74.00;;;;;;5037304;28;20033;-78
2022/10/07 11:05:35;;;;;;;11.45;8.00;;;16.30;74.70;;;;;;5037671;28;20049;-80
2022/10/07 11:08:06;;;;;;;;;;;16.20;74.30;;;;;;5037460;28;20067;-79
2022/10/07 11:10:52;;;;;;;10.15;7.03;;;16.20;74.40;;;;;;5036310;28;19905;-80
2022/10/07 11:13:17;;;;;;;9.40;6.32;;;16.30;74.40;;;;;;5036971;28;20028;-79
2022/10/07 11:16:04;;;;;;;10.02;6.47;;;16.30;74.00;;;;;;5036320;28;20033;-78
2022/10/07 11:18:42;;;;;;;8.80;5.95;;;16.20;74.40;;;;;;5037141;28;20040;-77
2022/10/07 11:21:15;;;;;;;7.70;5.68;;;16.40;74.10;;;;;;5037097;28;20036;-80
2022/10/07 11:23:53;;;;;;;10.13;6.63;;;16.60;73.90;;;;;;5036072;28;20037;-79
2022/10/07 11:26:28;;;;;;;10.32;6.60;;;16.80;73.70;;;;;;5036916;28;20398;-80
2022/10/07 11:28:56;;;;;;;11.50;7.38;;;17.00;72.70;;;;;;5037080;28;20025;-81
2022/10/07 11:31:39;;;;;;;9.55;6.65;;;17.10;71.50;;;;;;5037011;28;20540;-79
2022/10/07 11:34:16;;;;;;;11.80;7.63;;;17.10;71.10;;;;;;5036860;28;20521;-79
2022/10/07 11:36:58;;;;;;;6.72;6.05;;;17.30;71.00;;;;;;5036903;28;20377;-79
2022/10/07 11:39:24;;;;;;;12.95;7.13;;;17.30;70.10;;;;;;5037003;28;20098;-79
2022/10/07 11:42:02;;;;;;;8.68;5.72;;;17.20;70.00;;;;;;5036493;28;20017;-79
2022/10/07 11:44:42;;;;;;;8.68;6.65;;;17.20;70.20;;;;;;5036532;28;20036;-80
2022/10/07 11:47:16;;;;;;;7.78;5.50;;;17.30;70.00;;;;;;5036620;28;20053;-79
2022/10/07 11:50:01;;;;;;;10.68;5.82;;;17.60;69.90;;;;;;5036132;28;20025;-79
2022/10/07 11:52:30;;;;;;;11.32;5.72;;;18.00;68.40;;;;;;5020800;28;20079;-79
2022/10/07 11:55:07;;;;;;;9.45;5.45;;;18.80;66.50;;;;;;5036319;28;20032;-78
2022/10/07 11:57:36;;;;;;;6.57;5.20;;;19.50;64.00;;;;;;5036345;28;20040;-78
2022/10/07 12:00:07;;;;;;;8.93;5.55;;;20.10;59.80;;;;;;5036258;28;20033;-80
2022/10/07 12:02:39;;;;;;;7.93;5.57;;;20.50;58.30;;;;;;5036267;28;20060;-80
2022/10/07 12:05:07;;;;;;;9.27;6.30;;;20.90;57.60;;;;;;5036296;28;20025;-78
2022/10/07 12:07:33;;;;;;;8.68;6.00;;;21.30;56.70;;;;;;5036137;28;20489;-79
2022/10/07 12:10:05;;;;;;;6.70;5.50;;;21.70;55.70;;;;;;5036177;28;20124;-79
2022/10/07 12:12:44;;;;;;;7.63;5.03;;;22.30;53.70;;;;;;5035632;28;20040;-79
2022/10/07 12:15:33;;;;;;;7.93;5.50;;;22.90;51.90;;;;;;5036250;28;20036;-79
2022/10/07 12:18:23;;;;;;;13.00;6.75;;;23.20;48.10;;;;;;5036256;28;20078;-80
2022/10/07 12:20:49;;;;;;;7.20;5.60;;;23.30;47.60;;;;;;5036135;28;20469;-80
2022/10/07 12:23:21;;;;;;;11.07;5.90;;;23.00;48.10;;;;;;5036339;28;20036;-78
2022/10/07 12:25:54;;;;;;;7.25;5.25;;;22.70;49.20;;;;;;5035599;28;20036;-78
2022/10/07 12:28:33;;;;;;;6.28;4.93;;;23.00;49.20;;;;;;5036004;28;20025;-79
2022/10/07 12:31:01;;;;;;;9.30;5.18;;;23.30;48.00;;;;;;5035763;28;20406;-77
2022/10/07 12:33:32;;;;;;;8.30;4.75;;;23.60;47.20;;;;;;5035434;28;20028;-78
2022/10/07 12:36:19;;;;;;;7.88;4.63;;;23.80;46.70;;;;;;5034565;28;20021;-80
2022/10/07 12:39:35;;;;;;;10.25;4.55;;;24.10;47.00;;;;;;5053146;28;20033;-79
2022/10/07 12:42:04;;;;;;;5.68;4.57;;;24.50;45.80;;;;;;5031082;28;20421;-82
2022/10/07 12:44:39;;;;;;;9.40;4.85;;;24.60;44.70;;;;;;5034717;28;20029;-77
2022/10/07 12:47:09;;;;;;;7.43;4.22;;;24.60;43.60;;;;;;5035472;28;20126;-77
2022/10/07 12:49:57;;;;;;;5.50;3.80;;;24.60;44.00;;;;;;5035116;28;20041;-78
2022/10/07 12:52:42;;;;;;;4.78;4.18;;;24.60;44.30;;;;;;5035574;28;20033;-79
2022/10/07 12:55:18;;;;;;;7.82;4.60;;;24.70;43.60;;;;;;5035195;28;20465;-78
2022/10/07 12:57:52;;;;;;;5.05;3.97;;;25.00;44.90;;;;;;5035045;28;20040;-78
2022/10/07 13:00:23;;;;;;;7.00;4.30;;;25.20;43.00;;;;;;5035070;28;20481;-79
2022/10/07 13:03:07;;;;;;;8.15;4.03;;;25.50;42.70;;;;;;5035251;28;20267;-79
2022/10/07 13:05:46;;;;;;;5.85;3.78;;;25.80;41.30;;;;;;5035314;28;20075;-79
2022/10/07 13:08:25;;;;;;;5.55;3.95;;;26.00;41.20;;;;;;5035157;28;20055;-79
2022/10/07 13:11:29;;;;;;;6.47;4.50;;;26.20;40.30;;;;;;5034628;28;20035;-79
2022/10/07 13:13:59;;;;;;;5.13;3.50;;;26.40;39.10;;;;;;5034581;28;20076;-77
2022/10/07 13:16:35;;;;;;;4.80;3.35;;;26.40;39.80;;;;;;5034768;28;20036;-78
2022/10/07 13:19:13;;;;;;;5.35;3.28;;;26.60;39.90;;;;;;5034523;28;20032;-79